createdAt,value
2023-02-15T00:00:16.340Z,5.62
2023-02-15T00:03:04.399Z,5.60
2023-02-15T00:05:32.798Z,5.60
2023-02-15T00:08:00.869Z,5.58
2023-02-15T00:10:29.055Z,5.59
2023-02-15T00:12:57.335Z,5.57
2023-02-15T00:15:27.069Z,5.57
2023-02-15T00:17:55.118Z,5.57
2023-02-15T00:20:23.094Z,5.56
2023-02-15T00:22:51.174Z,5.56
2023-02-15T00:25:19.250Z,5.55
2023-02-15T00:27:47.326Z,5.55
2023-02-15T00:30:15.842Z,5.57
2023-02-15T00:32:43.984Z,5.58
2023-02-15T00:35:13.400Z,5.56
2023-02-15T00:37:41.411Z,5.54
2023-02-15T00:40:10.376Z,5.53
2023-02-15T00:42:38.549Z,5.54
2023-02-15T00:45:07.343Z,5.53
2023-02-15T00:47:35.374Z,5.53
2023-02-15T00:50:04.414Z,5.52
2023-02-15T00:52:32.406Z,5.52
2023-02-15T00:55:00.468Z,5.51
2023-02-15T00:57:28.541Z,5.51
2023-02-15T00:59:56.874Z,5.52
2023-02-15T01:02:24.835Z,5.52
2023-02-15T01:04:52.994Z,5.52
2023-02-15T01:07:21.153Z,5.54
2023-02-15T01:09:49.251Z,5.54
2023-02-15T01:12:17.320Z,5.53
2023-02-15T01:14:45.490Z,5.52
2023-02-15T01:17:13.567Z,5.51
2023-02-15T01:19:41.719Z,5.52
2023-02-15T01:22:10.026Z,5.53
2023-02-15T01:24:38.512Z,5.54
2023-02-15T01:27:06.590Z,5.54
2023-02-15T01:29:34.661Z,5.54
2023-02-15T01:32:03.716Z,5.55
2023-02-15T01:34:31.836Z,5.55
2023-02-15T01:37:00.249Z,5.56
2023-02-15T01:39:28.304Z,5.56
2023-02-15T01:41:58.439Z,5.56
2023-02-15T01:44:48.622Z,5.55
2023-02-15T01:47:42.674Z,5.56
2023-02-15T01:50:17.623Z,5.55
2023-02-15T01:53:02.264Z,5.54
2023-02-15T01:55:36.773Z,5.52
2023-02-15T01:58:05.572Z,5.52
2023-02-15T02:00:35.575Z,5.52
2023-02-15T02:03:04.993Z,5.51
2023-02-15T02:05:34.117Z,5.51
2023-02-15T02:08:03.347Z,5.52
2023-02-15T02:10:32.700Z,5.51
2023-02-15T02:13:05.893Z,5.52
2023-02-15T02:15:56.623Z,5.51
2023-02-15T02:18:52.699Z,5.50
2023-02-15T02:21:42.780Z,5.50
2023-02-15T02:24:42.469Z,5.50
2023-02-15T02:27:42.689Z,5.49
2023-02-15T02:30:38.498Z,5.49
2023-02-15T02:33:15.782Z,5.48
2023-02-15T02:36:16.599Z,5.47
2023-02-15T02:39:01.470Z,5.46
2023-02-15T02:41:44.559Z,5.46
2023-02-15T02:44:50.826Z,5.46
2023-02-15T02:47:25.375Z,5.46
2023-02-15T02:50:00.492Z,5.46
2023-02-15T02:52:40.137Z,5.45
2023-02-15T02:55:14.549Z,5.45
2023-02-15T02:58:22.134Z,5.46
2023-02-15T03:00:55.953Z,5.47
2023-02-15T03:03:36.393Z,5.46
2023-02-15T03:06:12.041Z,5.46
2023-02-15T03:08:46.362Z,5.46
2023-02-15T03:11:14.848Z,5.45
2023-02-15T03:13:45.946Z,5.44
2023-02-15T03:16:34.883Z,5.42
2023-02-15T03:19:10.644Z,5.42
2023-02-15T03:21:50.603Z,5.41
2023-02-15T03:24:25.752Z,5.41
2023-02-15T03:26:56.993Z,5.41
2023-02-15T03:29:29.106Z,5.42
2023-02-15T03:32:03.741Z,5.41
2023-02-15T03:34:32.098Z,5.41
2023-02-15T03:37:42.284Z,5.41
2023-02-15T03:40:46.451Z,5.40
2023-02-15T03:43:33.643Z,5.39
2023-02-15T03:46:14.868Z,5.38
2023-02-15T03:48:55.490Z,5.38
2023-02-15T03:51:35.146Z,5.37
2023-02-15T03:54:39.368Z,5.36
2023-02-15T03:57:30.603Z,5.36
2023-02-15T04:00:18.558Z,5.37
2023-02-15T04:02:57.917Z,5.36
2023-02-15T04:05:26.157Z,5.36
2023-02-15T04:07:54.075Z,5.36
2023-02-15T04:10:40.963Z,5.35
2023-02-15T04:13:08.949Z,5.36
2023-02-15T04:15:55.645Z,5.35
2023-02-15T04:18:42.153Z,5.35
2023-02-15T04:21:28.467Z,5.33
2023-02-15T04:24:15.048Z,5.33
2023-02-15T04:26:43.082Z,5.32
2023-02-15T04:29:11.180Z,5.33
2023-02-15T04:31:39.517Z,5.33
2023-02-15T04:34:07.749Z,5.34
2023-02-15T04:36:36.013Z,5.34
2023-02-15T04:39:04.512Z,5.34
2023-02-15T04:41:33.404Z,5.35
2023-02-15T04:44:02.147Z,5.35
2023-02-15T04:46:30.167Z,5.34
2023-02-15T04:48:58.856Z,5.33
2023-02-15T04:51:26.932Z,5.33
2023-02-15T04:53:55.050Z,5.33
2023-02-15T04:56:23.286Z,5.33
2023-02-15T04:58:51.463Z,5.33
2023-02-15T05:01:19.784Z,5.33
2023-02-15T05:03:48.127Z,5.33
2023-02-15T05:06:16.074Z,5.34
2023-02-15T05:08:44.392Z,5.33
2023-02-15T05:11:12.898Z,5.33
2023-02-15T05:13:41.263Z,5.33
2023-02-15T05:16:09.445Z,5.33
2023-02-15T05:18:37.623Z,5.33
2023-02-15T05:21:05.774Z,5.33
2023-02-15T05:23:33.867Z,5.31
2023-02-15T05:26:21.064Z,5.31
2023-02-15T05:28:49.016Z,5.30
2023-02-15T05:31:21.198Z,5.30
2023-02-15T05:33:49.418Z,5.30
2023-02-15T05:36:17.684Z,5.30
2023-02-15T05:38:46.076Z,5.31
2023-02-15T05:41:14.248Z,5.31
2023-02-15T05:43:42.631Z,5.31
2023-02-15T05:46:11.712Z,5.31
2023-02-15T05:48:39.823Z,5.32
2023-02-15T05:51:11.104Z,5.33
2023-02-15T05:53:40.469Z,5.34
2023-02-15T05:56:11.226Z,5.33
2023-02-15T05:58:41.751Z,5.34
2023-02-15T06:01:15.251Z,5.33
2023-02-15T06:03:43.542Z,5.31
2023-02-15T06:06:12.210Z,5.30
2023-02-15T06:08:40.598Z,5.30
2023-02-15T06:11:09.094Z,5.30
2023-02-15T06:13:38.907Z,5.29
2023-02-15T06:16:08.097Z,5.28
2023-02-15T06:18:36.385Z,5.26
2023-02-15T06:21:04.870Z,5.26
2023-02-15T06:23:32.934Z,5.27
2023-02-15T06:26:01.506Z,5.27
2023-02-15T06:28:29.808Z,5.28
2023-02-15T06:30:58.146Z,5.28
2023-02-15T06:33:26.482Z,5.28
2023-02-15T06:35:54.502Z,5.29
2023-02-15T06:38:22.534Z,5.29
2023-02-15T06:40:50.809Z,5.30
2023-02-15T06:43:19.188Z,5.31
2023-02-15T06:45:47.194Z,5.31
2023-02-15T06:48:15.265Z,5.31
2023-02-15T06:50:43.315Z,5.32
2023-02-15T06:53:11.460Z,5.33
2023-02-15T06:55:39.471Z,5.33
2023-02-15T06:58:07.957Z,5.33
2023-02-15T07:00:36.143Z,5.33
2023-02-15T07:03:04.195Z,5.33
2023-02-15T07:05:35.019Z,5.33
2023-02-15T07:08:03.540Z,5.35
2023-02-15T07:10:31.749Z,5.36
2023-02-15T07:12:59.985Z,5.38
2023-02-15T07:15:28.061Z,5.41
2023-02-15T07:17:56.047Z,5.43
2023-02-15T07:20:24.832Z,5.45
2023-02-15T07:22:53.207Z,5.48
2023-02-15T07:25:21.393Z,5.51
2023-02-15T07:27:49.487Z,5.54
2023-02-15T07:30:18.537Z,5.56
2023-02-15T07:33:05.906Z,5.57
2023-02-15T07:35:34.763Z,5.57
2023-02-15T07:38:02.846Z,5.57
2023-02-15T07:40:31.238Z,5.58
2023-02-15T07:43:00.409Z,5.58
2023-02-15T07:45:28.718Z,5.60
2023-02-15T07:47:56.792Z,5.61
2023-02-15T07:50:25.092Z,5.63
2023-02-15T07:52:53.422Z,5.64
2023-02-15T07:55:21.534Z,5.65
2023-02-15T07:57:51.014Z,5.65
2023-02-15T08:00:23.867Z,5.67
2023-02-15T08:03:14.312Z,5.69
2023-02-15T08:05:45.066Z,5.70
2023-02-15T08:08:32.269Z,5.73
2023-02-15T08:11:26.741Z,5.80
2023-02-15T08:13:57.720Z,5.90
2023-02-15T08:16:44.492Z,5.98
2023-02-15T08:19:21.370Z,6.04
2023-02-15T08:21:52.336Z,6.09
2023-02-15T08:24:22.860Z,6.13
2023-02-15T08:26:52.458Z,6.16
2023-02-15T08:29:23.602Z,6.18
2023-02-15T08:32:07.396Z,6.19
2023-02-15T08:34:41.871Z,6.20
2023-02-15T08:37:10.558Z,6.21
2023-02-15T08:39:38.739Z,6.22
2023-02-15T08:42:06.812Z,6.23
2023-02-15T08:44:34.880Z,6.24
2023-02-15T08:47:05.025Z,6.26
2023-02-15T08:49:33.702Z,6.27
2023-02-15T08:52:01.898Z,6.29
2023-02-15T08:54:30.269Z,6.31
2023-02-15T08:56:58.646Z,6.33
2023-02-15T08:59:28.046Z,6.34
2023-02-15T09:01:56.685Z,6.36
2023-02-15T09:04:24.928Z,6.38
2023-02-15T09:06:53.350Z,6.41
2023-02-15T09:09:22.860Z,6.43
2023-02-15T09:11:57.893Z,6.45
2023-02-15T09:14:28.599Z,6.47
2023-02-15T09:16:57.061Z,6.47
2023-02-15T09:19:26.123Z,6.47
2023-02-15T09:21:54.977Z,6.49
2023-02-15T09:24:23.140Z,6.51
2023-02-15T09:26:51.524Z,6.51
2023-02-15T09:29:20.839Z,6.51
2023-02-15T09:31:51.558Z,6.52
2023-02-15T09:34:22.010Z,6.53
2023-02-15T09:36:52.038Z,6.54
2023-02-15T09:39:30.113Z,6.54
2023-02-15T09:42:17.124Z,6.56
2023-02-15T09:45:32.887Z,6.58
2023-02-15T09:48:31.861Z,6.60
2023-02-15T09:51:22.880Z,6.63
2023-02-15T09:54:23.491Z,6.65
2023-02-15T09:57:00.359Z,6.69
2023-02-15T09:59:34.894Z,6.72
2023-02-15T10:02:17.906Z,6.75
2023-02-15T10:05:01.440Z,6.79
2023-02-15T10:07:38.517Z,6.82
2023-02-15T10:10:34.731Z,6.85
2023-02-15T10:13:34.524Z,6.88
2023-02-15T10:16:10.484Z,6.90
2023-02-15T10:18:56.874Z,6.94
2023-02-15T10:21:34.461Z,6.97
2023-02-15T10:24:20.054Z,7.01
2023-02-15T10:26:49.693Z,7.04
2023-02-15T10:29:31.365Z,7.07
2023-02-15T10:32:27.581Z,7.10
2023-02-15T10:35:02.703Z,7.15
2023-02-15T10:37:46.247Z,7.19
2023-02-15T10:41:03.160Z,7.21
2023-02-15T10:43:40.599Z,7.24
2023-02-15T10:46:25.154Z,7.27
2023-02-15T10:48:56.834Z,7.30
2023-02-15T10:51:38.512Z,7.34
2023-02-15T10:54:15.495Z,7.37
2023-02-15T10:56:49.396Z,7.40
2023-02-15T10:59:32.823Z,7.43
2023-02-15T11:02:16.147Z,7.46
2023-02-15T11:05:02.705Z,7.50
2023-02-15T11:07:36.360Z,7.53
2023-02-15T11:10:18.441Z,7.54
2023-02-15T11:12:48.265Z,7.56
2023-02-15T11:15:26.952Z,7.57
2023-02-15T11:18:06.832Z,7.59
2023-02-15T11:20:42.655Z,7.63
2023-02-15T11:23:17.320Z,7.66
2023-02-15T11:25:58.285Z,7.69
2023-02-15T11:28:51.321Z,7.73
2023-02-15T11:31:43.571Z,7.76
2023-02-15T11:34:20.121Z,7.79
2023-02-15T11:36:51.576Z,7.82
2023-02-15T11:39:22.514Z,7.85
2023-02-15T11:41:56.117Z,7.87
2023-02-15T11:44:42.936Z,7.88
2023-02-15T11:47:13.037Z,7.91
2023-02-15T11:49:41.226Z,7.94
2023-02-15T11:52:14.581Z,7.96
2023-02-15T11:54:51.068Z,7.98
2023-02-15T11:57:28.476Z,8.00
2023-02-15T12:00:05.771Z,8.02
2023-02-15T12:02:38.477Z,8.04
2023-02-15T12:05:13.294Z,8.07
2023-02-15T12:07:47.997Z,8.09
2023-02-15T12:10:25.860Z,8.11
2023-02-15T12:13:18.090Z,8.13
2023-02-15T12:15:50.163Z,8.16
2023-02-15T12:18:22.383Z,8.19
2023-02-15T12:20:50.954Z,8.21
2023-02-15T12:23:19.726Z,8.24
2023-02-15T12:25:56.810Z,8.27
2023-02-15T12:28:32.517Z,8.29
2023-02-15T12:31:03.493Z,8.31
2023-02-15T12:33:46.640Z,8.34
2023-02-15T12:36:27.832Z,8.36
2023-02-15T12:39:05.422Z,8.38
2023-02-15T12:41:33.899Z,8.41
2023-02-15T12:44:20.020Z,8.43
2023-02-15T12:47:19.475Z,8.45
2023-02-15T12:50:05.456Z,8.48
2023-02-15T12:52:33.634Z,8.51
2023-02-15T12:55:23.001Z,8.55
2023-02-15T12:58:20.453Z,8.58
2023-02-15T13:00:49.084Z,8.61
2023-02-15T13:03:25.003Z,8.64
2023-02-15T13:05:56.231Z,8.67
2023-02-15T13:08:36.813Z,8.70
2023-02-15T13:11:12.405Z,8.73
2023-02-15T13:13:57.315Z,8.77
2023-02-15T13:16:33.613Z,8.79
2023-02-15T13:19:16.210Z,8.81
2023-02-15T13:21:51.258Z,8.84
2023-02-15T13:24:25.241Z,8.86
2023-02-15T13:27:09.310Z,8.89
2023-02-15T13:29:46.667Z,8.91
2023-02-15T13:32:30.192Z,8.94
2023-02-15T13:35:00.561Z,8.97
2023-02-15T13:38:10.042Z,9.00
2023-02-15T13:40:47.841Z,9.03
2023-02-15T13:43:34.023Z,9.06
2023-02-15T13:46:05.114Z,9.09
2023-02-15T13:48:51.294Z,9.12
2023-02-15T13:51:32.747Z,9.15
2023-02-15T13:54:10.843Z,9.17
2023-02-15T13:57:09.928Z,9.20
2023-02-15T13:59:57.157Z,9.23
2023-02-15T14:02:28.404Z,9.26
2023-02-15T14:05:27.181Z,9.28
2023-02-15T14:08:35.264Z,9.31
2023-02-15T14:11:14.293Z,9.33
2023-02-15T14:14:00.947Z,9.36
2023-02-15T14:17:00.684Z,9.38
2023-02-15T14:19:52.401Z,9.41
2023-02-15T14:22:36.432Z,9.43
2023-02-15T14:25:26.312Z,9.46
2023-02-15T14:28:29.117Z,9.48
2023-02-15T14:30:58.574Z,9.51
2023-02-15T14:33:34.360Z,9.52
2023-02-15T14:36:07.420Z,9.54
2023-02-15T14:39:46.827Z,9.56
2023-02-15T14:42:26.871Z,9.59
2023-02-15T14:45:18.186Z,9.61
2023-02-15T14:47:57.008Z,9.63
2023-02-15T14:50:31.048Z,9.65
2023-02-15T14:53:24.274Z,9.67
2023-02-15T14:56:10.266Z,9.67
2023-02-15T14:58:39.376Z,9.68
2023-02-15T15:01:10.599Z,9.69
2023-02-15T15:03:50.500Z,9.70
2023-02-15T15:06:28.865Z,9.70
2023-02-15T15:09:02.261Z,9.71
2023-02-15T15:11:42.626Z,9.72
2023-02-15T15:14:34.648Z,9.72
2023-02-15T15:17:04.971Z,9.73
2023-02-15T15:19:51.975Z,9.74
2023-02-15T15:22:22.549Z,9.75
2023-02-15T15:24:53.720Z,9.74
2023-02-15T15:27:51.409Z,9.74
2023-02-15T15:30:19.432Z,9.75
2023-02-15T15:33:00.142Z,9.75
2023-02-15T15:36:05.061Z,9.74
2023-02-15T15:39:18.367Z,9.73
2023-02-15T15:41:57.188Z,9.71
2023-02-15T15:44:59.860Z,9.69
2023-02-15T15:47:36.734Z,9.66
2023-02-15T15:50:22.921Z,9.63
2023-02-15T15:52:54.246Z,9.60
2023-02-15T15:55:28.688Z,9.57
2023-02-15T15:58:01.382Z,9.52
2023-02-15T16:00:41.945Z,9.48
2023-02-15T16:03:23.307Z,9.45
2023-02-15T16:05:56.219Z,9.41
2023-02-15T16:08:31.548Z,9.35
2023-02-15T16:11:14.562Z,9.26
2023-02-15T16:13:44.892Z,9.18
2023-02-15T16:16:20.384Z,9.11
2023-02-15T16:18:48.928Z,9.03
2023-02-15T16:21:24.355Z,8.96
2023-02-15T16:23:52.286Z,8.88
2023-02-15T16:26:36.067Z,8.81
2023-02-15T16:29:16.022Z,8.74
2023-02-15T16:31:44.690Z,8.67
2023-02-15T16:34:19.236Z,8.62
2023-02-15T16:36:47.416Z,8.55
2023-02-15T16:39:21.109Z,8.49
2023-02-15T16:41:55.428Z,8.42
2023-02-15T16:44:23.613Z,8.38
2023-02-15T16:46:55.109Z,8.35
2023-02-15T16:49:27.256Z,8.31
2023-02-15T16:52:06.997Z,8.26
2023-02-15T16:54:36.619Z,8.22
2023-02-15T16:57:04.972Z,8.17
2023-02-15T16:59:37.754Z,8.12
2023-02-15T17:02:14.516Z,8.06
2023-02-15T17:04:46.193Z,8.02
2023-02-15T17:07:21.428Z,7.98
2023-02-15T17:09:55.652Z,7.94
2023-02-15T17:12:48.380Z,7.90
2023-02-15T17:15:33.351Z,7.87
2023-02-15T17:18:16.570Z,7.83
2023-02-15T17:20:46.082Z,7.79
2023-02-15T17:23:26.644Z,7.76
2023-02-15T17:25:55.853Z,7.74
2023-02-15T17:28:27.101Z,7.71
2023-02-15T17:30:57.115Z,7.68
2023-02-15T17:33:34.508Z,7.64
2023-02-15T17:36:23.041Z,7.60
2023-02-15T17:39:23.361Z,7.54
2023-02-15T17:41:54.096Z,7.48
2023-02-15T17:44:22.268Z,7.43
2023-02-15T17:46:50.553Z,7.40
2023-02-15T17:49:35.017Z,7.36
2023-02-15T17:52:03.488Z,7.32
2023-02-15T17:54:57.885Z,7.26
2023-02-15T17:57:27.080Z,7.22
2023-02-15T18:00:14.297Z,7.19
2023-02-15T18:03:02.629Z,7.16
2023-02-15T18:05:50.348Z,7.11
2023-02-15T18:08:42.363Z,7.05
2023-02-15T18:11:32.455Z,7.02
2023-02-15T18:14:03.699Z,6.98
2023-02-15T18:16:35.368Z,6.96
2023-02-15T18:19:05.478Z,6.94
2023-02-15T18:21:34.474Z,6.92
2023-02-15T18:24:06.949Z,6.91
2023-02-15T18:26:36.676Z,6.90
2023-02-15T18:29:05.358Z,6.89
2023-02-15T18:31:36.957Z,6.87
2023-02-15T18:34:09.154Z,6.84
2023-02-15T18:36:44.208Z,6.79
2023-02-15T18:39:41.457Z,6.75
2023-02-15T18:42:25.087Z,6.70
2023-02-15T18:44:59.714Z,6.69
2023-02-15T18:47:27.897Z,6.65
2023-02-15T18:49:57.705Z,6.63
2023-02-15T18:52:33.048Z,6.61
2023-02-15T18:55:04.524Z,6.56
2023-02-15T18:57:33.290Z,6.55
2023-02-15T19:00:01.367Z,6.51
2023-02-15T19:02:29.576Z,6.48
2023-02-15T19:04:57.833Z,6.44
2023-02-15T19:07:28.058Z,6.41
2023-02-15T19:09:59.298Z,6.38
2023-02-15T19:12:30.972Z,6.36
2023-02-15T19:14:58.981Z,6.33
2023-02-15T19:17:26.946Z,6.30
2023-02-15T19:19:55.422Z,6.29
2023-02-15T19:22:30.436Z,6.26
2023-02-15T19:25:00.767Z,6.24
2023-02-15T19:27:31.508Z,6.21
2023-02-15T19:30:03.123Z,6.19
2023-02-15T19:32:31.336Z,6.17
2023-02-15T19:34:59.573Z,6.15
2023-02-15T19:37:43.916Z,6.13
2023-02-15T19:40:28.947Z,6.10
2023-02-15T19:42:57.724Z,6.07
2023-02-15T19:45:29.475Z,6.05
2023-02-15T19:47:57.777Z,6.02
2023-02-15T19:50:33.303Z,6.00
2023-02-15T19:53:02.641Z,5.96
2023-02-15T19:55:35.384Z,5.92
2023-02-15T19:58:04.399Z,5.91
2023-02-15T20:00:34.314Z,5.89
2023-02-15T20:03:02.597Z,5.87
2023-02-15T20:05:34.170Z,5.84
2023-02-15T20:08:04.477Z,5.82
2023-02-15T20:10:32.754Z,5.77
2023-02-15T20:13:01.561Z,5.76
2023-02-15T20:15:35.128Z,5.73
2023-02-15T20:18:04.353Z,5.69
2023-02-15T20:21:14.297Z,5.66
2023-02-15T20:23:42.669Z,5.64
2023-02-15T20:26:18.332Z,5.61
2023-02-15T20:28:46.912Z,5.58
2023-02-15T20:31:17.328Z,5.56
2023-02-15T20:33:46.039Z,5.53
2023-02-15T20:36:16.848Z,5.50
2023-02-15T20:38:45.827Z,5.47
2023-02-15T20:41:35.449Z,5.43
2023-02-15T20:44:23.757Z,5.39
2023-02-15T20:46:54.973Z,5.36
2023-02-15T20:49:24.596Z,5.35
2023-02-15T20:51:57.103Z,5.34
2023-02-15T20:54:30.911Z,5.33
2023-02-15T20:56:59.477Z,5.32
2023-02-15T20:59:27.673Z,5.31
2023-02-15T21:02:00.007Z,5.30
2023-02-15T21:04:33.547Z,5.28
2023-02-15T21:07:01.842Z,5.26
2023-02-15T21:09:31.748Z,5.24
2023-02-15T21:12:02.762Z,5.22
2023-02-15T21:14:31.284Z,5.21
2023-02-15T21:16:59.642Z,5.20
2023-02-15T21:19:27.941Z,5.17
2023-02-15T21:21:56.741Z,5.15
2023-02-15T21:24:28.049Z,5.12
2023-02-15T21:27:00.584Z,5.10
2023-02-15T21:29:30.485Z,5.11
2023-02-15T21:31:58.777Z,5.11
2023-02-15T21:34:27.042Z,5.10
2023-02-15T21:36:55.497Z,5.09
2023-02-15T21:39:26.470Z,5.07
2023-02-15T21:42:14.520Z,5.05
2023-02-15T21:45:01.496Z,5.03
2023-02-15T21:47:50.483Z,5.00
2023-02-15T21:50:39.837Z,4.98
2023-02-15T21:53:12.270Z,4.94
2023-02-15T21:55:40.512Z,4.91
2023-02-15T21:58:19.100Z,4.86
2023-02-15T22:00:47.670Z,4.81
2023-02-15T22:03:16.176Z,4.77
2023-02-15T22:05:44.141Z,4.75
2023-02-15T22:08:14.173Z,4.73
2023-02-15T22:10:43.278Z,4.69
2023-02-15T22:13:17.882Z,4.67
2023-02-15T22:15:47.376Z,4.64
2023-02-15T22:18:27.808Z,4.61
2023-02-15T22:20:57.011Z,4.60
2023-02-15T22:23:25.650Z,4.58
2023-02-15T22:25:57.112Z,4.57
2023-02-15T22:28:31.438Z,4.56
2023-02-15T22:31:00.598Z,4.54
2023-02-15T22:40:18.075Z,4.56
2023-02-15T22:42:49.009Z,4.58
2023-02-15T22:45:22.639Z,4.59
2023-02-15T22:47:53.504Z,4.60
2023-02-15T22:50:24.862Z,4.61
2023-02-15T22:52:53.381Z,4.61
2023-02-15T22:55:24.816Z,4.62
2023-02-15T22:57:55.832Z,4.61
2023-02-15T23:00:30.730Z,4.60
2023-02-15T23:02:58.770Z,4.58
2023-02-15T23:05:30.246Z,4.58
2023-02-15T23:07:58.314Z,4.59
2023-02-15T23:10:29.040Z,4.60
2023-02-15T23:13:18.438Z,4.60
2023-02-15T23:15:51.579Z,4.58
2023-02-15T23:18:24.698Z,4.55
2023-02-15T23:20:57.757Z,4.52
2023-02-15T23:23:32.861Z,4.49
2023-02-15T23:26:04.127Z,4.49
2023-02-15T23:28:38.303Z,4.49
2023-02-15T23:31:23.801Z,4.49
2023-02-15T23:33:53.596Z,4.49
2023-02-15T23:36:39.257Z,4.48
2023-02-15T23:39:36.756Z,4.47
2023-02-15T23:42:26.118Z,4.47
2023-02-15T23:44:54.513Z,4.47
2023-02-15T23:47:44.324Z,4.46
2023-02-15T23:50:19.144Z,4.44
2023-02-15T23:52:47.515Z,4.40
2023-02-15T23:55:16.468Z,4.35
2023-02-15T23:57:45.487Z,4.33
